createdAt,value
2022-10-12T00:01:05.643Z,102611.47
2022-10-12T00:03:34.253Z,102610.00
2022-10-12T00:06:05.634Z,102607.75
2022-10-12T00:08:34.790Z,102609.69
2022-10-12T00:11:02.985Z,102617.78
2022-10-12T00:13:31.611Z,102603.13
2022-10-12T00:16:05.709Z,102615.56
2022-10-12T00:18:35.071Z,102601.63
2022-10-12T00:21:05.033Z,102605.22
2022-10-12T00:23:34.801Z,102606.09
2022-10-12T00:26:05.088Z,102600.97
2022-10-12T00:28:34.033Z,102601.84
2022-10-12T00:31:02.623Z,102606.19
2022-10-12T00:33:32.253Z,102597.41
2022-10-12T00:36:00.395Z,102599.97
2022-10-12T00:38:28.899Z,102605.97
2022-10-12T00:40:56.954Z,102606.69
2022-10-12T00:43:29.562Z,102604.03
2022-10-12T00:45:58.571Z,102600.38
2022-10-12T00:48:27.581Z,102604.66
2022-10-12T00:50:58.823Z,102604.47
2022-10-12T00:53:30.674Z,102601.78
2022-10-12T00:56:02.798Z,102603.41
2022-10-12T00:58:32.223Z,102604.16
2022-10-12T01:01:02.603Z,102609.25
2022-10-12T01:03:30.982Z,102608.25
2022-10-12T01:06:01.627Z,102610.00
2022-10-12T01:08:30.568Z,102607.28
2022-10-12T01:10:58.835Z,102608.94
2022-10-12T01:13:27.436Z,102608.81
2022-10-12T01:16:03.267Z,102608.56
2022-10-12T01:18:41.853Z,102608.38
2022-10-12T01:21:21.432Z,102603.91
2022-10-12T01:24:43.996Z,102602.00
2022-10-12T01:27:41.096Z,102593.91
2022-10-12T01:30:21.882Z,102599.00
2022-10-12T01:33:23.068Z,102594.47
2022-10-12T01:35:59.744Z,102599.56
2022-10-12T01:38:44.156Z,102594.19
2022-10-12T01:41:19.307Z,102602.78
2022-10-12T01:43:47.910Z,102600.94
2022-10-12T01:46:44.451Z,102600.81
2022-10-12T01:49:17.157Z,102593.69
2022-10-12T01:52:03.758Z,102603.91
2022-10-12T01:54:47.918Z,102596.91
2022-10-12T01:57:26.508Z,102599.38
2022-10-12T02:00:05.295Z,102593.28
2022-10-12T02:02:45.730Z,102597.44
2022-10-12T02:05:23.850Z,102592.13
2022-10-12T02:07:59.203Z,102582.38
2022-10-12T02:10:34.317Z,102575.31
2022-10-12T02:13:07.342Z,102570.84
2022-10-12T02:15:37.761Z,102566.41
2022-10-12T02:18:09.638Z,102565.44
2022-10-12T02:20:39.951Z,102562.84
2022-10-12T02:23:09.530Z,102561.94
2022-10-12T02:25:37.615Z,102554.13
2022-10-12T02:28:11.198Z,102555.00
2022-10-12T02:30:49.267Z,102549.84
2022-10-12T02:33:26.876Z,102557.75
2022-10-12T02:36:02.031Z,102549.25
2022-10-12T02:38:34.557Z,102539.84
2022-10-12T02:41:07.279Z,102540.03
2022-10-12T02:43:40.229Z,102532.41
2022-10-12T02:46:11.569Z,102538.59
2022-10-12T02:48:42.745Z,102538.72
2022-10-12T02:51:12.247Z,102540.69
2022-10-12T02:53:41.130Z,102537.47
2022-10-12T02:56:14.145Z,102539.38
2022-10-12T02:58:44.896Z,102540.38
2022-10-12T03:01:13.783Z,102532.69
2022-10-12T03:03:43.380Z,102535.44
2022-10-12T03:06:11.624Z,102531.97
2022-10-12T03:08:39.763Z,102528.47
2022-10-12T03:11:10.380Z,102525.88
2022-10-12T03:13:38.586Z,102526.75
2022-10-12T03:16:09.695Z,102533.66
2022-10-12T03:18:38.690Z,102529.25
2022-10-12T03:21:08.430Z,102524.88
2022-10-12T03:23:36.534Z,102526.44
2022-10-12T03:26:05.445Z,102526.38
2022-10-12T03:28:34.162Z,102535.84
2022-10-12T03:31:03.396Z,102532.31
2022-10-12T03:33:31.494Z,102533.13
2022-10-12T03:35:59.751Z,102527.78
2022-10-12T03:38:29.280Z,102524.22
2022-10-12T03:40:57.362Z,102528.56
2022-10-12T03:43:25.632Z,102525.00
2022-10-12T03:45:54.193Z,102531.78
2022-10-12T03:48:22.331Z,102528.22
2022-10-12T03:50:51.131Z,102529.06
2022-10-12T03:53:20.351Z,102534.25
2022-10-12T03:55:49.981Z,102527.25
2022-10-12T03:58:18.693Z,102522.03
2022-10-12T04:00:46.795Z,102522.81
2022-10-12T04:03:14.876Z,102520.25
2022-10-12T04:05:42.950Z,102523.75
2022-10-12T04:08:11.363Z,102522.03
2022-10-12T04:10:39.438Z,102516.00
2022-10-12T04:13:08.872Z,102523.06
2022-10-12T04:15:36.945Z,102518.75
2022-10-12T04:18:05.434Z,102515.31
2022-10-12T04:20:33.542Z,102517.97
2022-10-12T04:23:01.965Z,102518.94
2022-10-12T04:25:30.390Z,102516.41
2022-10-12T04:27:58.718Z,102512.13
2022-10-12T04:30:28.268Z,102511.38
2022-10-12T04:32:57.244Z,102514.94
2022-10-12T04:35:25.326Z,102513.22
2022-10-12T04:37:53.478Z,102513.28
2022-10-12T04:40:21.529Z,102502.97
2022-10-12T04:42:49.631Z,102509.16
2022-10-12T04:45:17.803Z,102516.22
2022-10-12T04:47:47.175Z,102511.94
2022-10-12T04:50:15.957Z,102512.06
2022-10-12T04:52:44.095Z,102513.88
2022-10-12T04:55:12.185Z,102515.63
2022-10-12T04:57:40.820Z,102511.38
2022-10-12T05:00:11.273Z,102504.50
2022-10-12T05:02:39.354Z,102507.94
2022-10-12T05:05:10.067Z,102501.06
2022-10-12T05:07:38.320Z,102498.47
2022-10-12T05:10:07.799Z,102494.94
2022-10-12T05:12:36.096Z,102508.91
2022-10-12T05:15:04.643Z,102506.28
2022-10-12T05:17:32.765Z,102504.50
2022-10-12T05:20:00.786Z,102507.09
2022-10-12T05:22:30.226Z,102499.16
2022-10-12T05:24:58.337Z,102506.03
2022-10-12T05:27:26.429Z,102512.06
2022-10-12T05:29:54.532Z,102501.59
2022-10-12T05:32:22.669Z,102495.34
2022-10-12T05:34:50.693Z,102494.38
2022-10-12T05:37:19.563Z,102495.16
2022-10-12T05:39:49.739Z,102492.44
2022-10-12T05:42:17.813Z,102489.66
2022-10-12T05:44:45.962Z,102494.69
2022-10-12T05:47:14.044Z,102489.38
2022-10-12T05:49:42.281Z,102489.25
2022-10-12T05:52:10.446Z,102489.09
2022-10-12T05:54:38.722Z,102493.34
2022-10-12T05:57:08.175Z,102495.84
2022-10-12T05:59:36.457Z,102500.94
2022-10-12T06:02:04.557Z,102497.38
2022-10-12T06:04:32.767Z,102495.53
2022-10-12T06:07:00.887Z,102489.28
2022-10-12T06:09:28.941Z,102491.75
2022-10-12T06:11:57.071Z,102485.59
2022-10-12T06:14:26.483Z,102486.41
2022-10-12T06:16:54.671Z,102484.63
2022-10-12T06:19:22.992Z,102482.84
2022-10-12T06:21:51.018Z,102487.25
2022-10-12T06:24:19.116Z,102489.84
2022-10-12T06:26:47.209Z,102489.84
2022-10-12T06:29:15.248Z,102481.94
2022-10-12T06:31:49.003Z,102488.03
2022-10-12T06:34:19.530Z,102474.97
2022-10-12T06:36:47.586Z,102482.84
2022-10-12T06:39:15.721Z,102482.84
2022-10-12T06:41:43.788Z,102489.84
2022-10-12T06:44:11.913Z,102488.19
2022-10-12T06:46:40.018Z,102479.47
2022-10-12T06:49:10.302Z,102484.75
2022-10-12T06:51:38.454Z,102481.34
2022-10-12T06:54:06.593Z,102483.31
2022-10-12T06:56:35.078Z,102490.50
2022-10-12T06:59:03.173Z,102487.19
2022-10-12T07:01:31.302Z,102488.34
2022-10-12T07:04:00.912Z,102483.31
2022-10-12T07:06:30.572Z,102491.41
2022-10-12T07:08:58.821Z,102490.69
2022-10-12T07:11:26.980Z,102488.28
2022-10-12T07:13:55.050Z,102497.13
2022-10-12T07:16:23.229Z,102489.53
2022-10-12T07:18:51.354Z,102487.25
2022-10-12T07:21:19.423Z,102490.16
2022-10-12T07:23:48.861Z,102490.53
2022-10-12T07:26:17.046Z,102489.13
2022-10-12T07:28:45.431Z,102484.25
2022-10-12T07:31:13.562Z,102484.63
2022-10-12T07:33:41.695Z,102486.66
2022-10-12T07:36:14.242Z,102482.50
2022-10-12T07:38:45.243Z,102485.44
2022-10-12T07:41:15.718Z,102486.72
2022-10-12T07:43:44.177Z,102486.19
2022-10-12T07:46:12.982Z,102490.06
2022-10-12T07:48:45.723Z,102486.13
2022-10-12T07:51:17.197Z,102490.91
2022-10-12T07:53:45.510Z,102492.09
2022-10-12T07:56:18.763Z,102489.81
2022-10-12T07:58:50.898Z,102490.09
2022-10-12T08:01:21.238Z,102488.59
2022-10-12T08:03:50.236Z,102495.00
2022-10-12T08:06:22.114Z,102483.16
2022-10-12T08:08:51.035Z,102479.97
2022-10-12T08:11:22.012Z,102481.94
2022-10-12T08:13:50.217Z,102494.31
2022-10-12T08:16:21.706Z,102491.84
2022-10-12T08:18:50.166Z,102488.41
2022-10-12T08:21:18.990Z,102494.69
2022-10-12T08:23:47.903Z,102493.22
2022-10-12T08:26:17.177Z,102494.31
2022-10-12T08:28:46.735Z,102482.44
2022-10-12T08:31:17.614Z,102477.66
2022-10-12T08:33:45.819Z,102484.19
2022-10-12T08:36:14.651Z,102487.31
2022-10-12T08:38:44.235Z,102470.28
2022-10-12T08:41:27.546Z,102480.44
2022-10-12T08:44:16.773Z,102477.47
2022-10-12T08:46:45.045Z,102473.56
2022-10-12T08:49:18.898Z,102474.13
2022-10-12T08:51:51.526Z,102472.88
2022-10-12T08:54:24.147Z,102473.41
2022-10-12T08:56:55.007Z,102473.88
2022-10-12T08:59:26.186Z,102473.28
2022-10-12T09:02:08.882Z,102470.09
2022-10-12T09:04:53.472Z,102469.50
2022-10-12T09:07:27.361Z,102472.44
2022-10-12T09:10:12.186Z,102463.97
2022-10-12T09:12:53.960Z,102461.66
2022-10-12T09:15:29.010Z,102468.88
2022-10-12T09:18:00.442Z,102460.31
2022-10-12T09:20:31.931Z,102460.53
2022-10-12T09:23:07.581Z,102457.22
2022-10-12T09:25:35.713Z,102466.16
2022-10-12T09:28:15.838Z,102458.31
2022-10-12T09:30:58.541Z,102463.69
2022-10-12T09:33:30.211Z,102463.84
2022-10-12T09:35:59.108Z,102463.06
2022-10-12T09:38:27.330Z,102463.13
2022-10-12T09:40:55.406Z,102464.03
2022-10-12T09:43:23.589Z,102462.25
2022-10-12T09:45:53.522Z,102465.78
2022-10-12T09:48:24.649Z,102470.19
2022-10-12T09:50:56.455Z,102458.78
2022-10-12T09:53:32.666Z,102461.41
2022-10-12T09:56:09.721Z,102458.78
2022-10-12T09:58:50.802Z,102463.19
2022-10-12T10:01:26.198Z,102457.09
2022-10-12T10:04:15.650Z,102458.03
2022-10-12T10:06:46.712Z,102456.34
2022-10-12T10:09:34.979Z,102455.50
2022-10-12T10:12:20.710Z,102451.13
2022-10-12T10:14:49.032Z,102457.34
2022-10-12T10:17:25.607Z,102459.19
2022-10-12T10:19:56.234Z,102461.88
2022-10-12T10:22:25.721Z,102460.19
2022-10-12T10:25:00.247Z,102450.59
2022-10-12T10:27:37.491Z,102447.22
2022-10-12T10:30:29.794Z,102445.53
2022-10-12T10:33:17.591Z,102444.72
2022-10-12T10:36:05.958Z,102442.09
2022-10-12T10:38:50.066Z,102436.91
2022-10-12T10:41:19.895Z,102447.50
2022-10-12T10:43:49.958Z,102441.41
2022-10-12T10:46:25.280Z,102432.66
2022-10-12T10:48:58.382Z,102430.94
2022-10-12T10:51:43.586Z,102425.72
2022-10-12T10:54:17.834Z,102429.25
2022-10-12T10:56:47.654Z,102429.28
2022-10-12T10:59:31.412Z,102424.91
2022-10-12T11:02:06.717Z,102416.97
2022-10-12T11:04:42.941Z,102419.66
2022-10-12T11:07:22.651Z,102419.72
2022-10-12T11:09:56.062Z,102413.56
2022-10-12T11:12:31.542Z,102401.25
2022-10-12T11:15:08.890Z,102395.16
2022-10-12T11:17:43.065Z,102403.97
2022-10-12T11:20:33.309Z,102402.22
2022-10-12T11:23:06.505Z,102384.63
2022-10-12T11:25:49.227Z,102380.25
2022-10-12T11:28:17.976Z,102386.47
2022-10-12T11:30:51.893Z,102375.06
2022-10-12T11:33:25.096Z,102372.47
2022-10-12T11:35:55.935Z,102376.88
2022-10-12T11:38:32.077Z,102373.38
2022-10-12T11:41:33.733Z,102369.00
2022-10-12T11:44:01.971Z,102374.31
2022-10-12T11:46:37.193Z,102362.91
2022-10-12T11:49:15.961Z,102361.19
2022-10-12T11:51:48.278Z,102356.91
2022-10-12T11:54:25.309Z,102356.09
2022-10-12T11:56:57.089Z,102341.16
2022-10-12T11:59:32.523Z,102334.13
2022-10-12T12:02:19.129Z,102336.81
2022-10-12T12:04:49.331Z,102336.84
2022-10-12T12:07:44.200Z,102344.84
2022-10-12T12:10:53.246Z,102338.69
2022-10-12T12:13:27.224Z,102332.53
2022-10-12T12:16:33.374Z,102337.84
2022-10-12T12:19:43.058Z,102320.22
2022-10-12T12:22:26.381Z,102326.41
2022-10-12T12:25:16.942Z,102311.41
2022-10-12T12:27:49.558Z,102306.09
2022-10-12T12:30:33.490Z,102307.84
2022-10-12T12:33:03.539Z,102310.50
2022-10-12T12:35:38.131Z,102297.22
2022-10-12T12:38:21.199Z,102298.06
2022-10-12T12:41:10.389Z,102296.81
2022-10-12T12:44:04.671Z,102289.84
2022-10-12T12:50:33.210Z,102275.81
2022-10-12T12:53:08.058Z,102273.59
2022-10-12T12:56:05.473Z,102271.28
2022-10-12T12:58:52.689Z,102258.91
2022-10-12T13:01:48.274Z,102255.97
2022-10-12T13:04:44.700Z,102259.81
2022-10-12T13:07:49.196Z,102257.75
2022-10-12T13:10:48.989Z,102245.56
2022-10-12T13:13:40.103Z,102242.19
2022-10-12T13:17:03.569Z,102241.19
2022-10-12T13:19:19.935Z,102231.63
2022-10-12T13:21:53.253Z,102226.59
2022-10-12T13:24:25.819Z,102223.66
2022-10-12T13:27:01.730Z,102221.31
2022-10-12T13:29:40.771Z,102217.84
2022-10-12T13:32:27.101Z,102211.81
2022-10-12T13:34:58.130Z,102218.06
2022-10-12T13:37:32.447Z,102211.03
2022-10-12T13:40:00.833Z,102211.53
2022-10-12T13:42:33.573Z,102205.44
2022-10-12T13:45:05.115Z,102212.47
2022-10-12T13:47:34.684Z,102205.47
2022-10-12T13:50:02.911Z,102203.97
2022-10-12T13:52:34.030Z,102196.00
2022-10-12T13:55:02.496Z,102184.25
2022-10-12T13:57:37.957Z,102185.72
2022-10-12T14:00:18.855Z,102177.31
2022-10-12T14:02:56.786Z,102175.03
2022-10-12T14:05:27.716Z,102182.34
2022-10-12T14:08:00.277Z,102171.06
2022-10-12T14:10:33.289Z,102180.97
2022-10-12T14:13:02.663Z,102184.66
2022-10-12T14:15:35.824Z,102180.31
2022-10-12T14:18:04.898Z,102180.41
2022-10-12T14:20:37.223Z,102183.13
2022-10-12T14:23:13.142Z,102184.03
2022-10-12T14:25:53.935Z,102178.81
2022-10-12T14:28:30.338Z,102170.91
2022-10-12T14:31:00.038Z,102172.72
2022-10-12T14:33:29.218Z,102159.53
2022-10-12T14:36:16.877Z,102159.53
2022-10-12T14:38:47.490Z,102157.78
2022-10-12T14:41:37.582Z,102160.47
2022-10-12T14:44:13.787Z,102156.06
2022-10-12T14:46:51.746Z,102169.31
2022-10-12T14:49:23.425Z,102171.06
2022-10-12T14:51:53.160Z,102167.53
2022-10-12T14:54:24.351Z,102164.91
2022-10-12T14:56:52.435Z,102148.16
2022-10-12T14:59:20.687Z,102154.31
2022-10-12T15:01:51.438Z,102155.19
2022-10-12T15:04:19.857Z,102166.66
2022-10-12T15:06:50.909Z,102156.06
2022-10-12T15:09:19.328Z,102163.13
2022-10-12T15:11:47.373Z,102161.38
2022-10-12T15:14:15.447Z,102164.94
2022-10-12T15:16:43.517Z,102156.94
2022-10-12T15:19:12.929Z,102149.00
2022-10-12T15:21:41.045Z,102152.56
2022-10-12T15:24:16.245Z,102152.56
2022-10-12T15:26:44.313Z,102154.34
2022-10-12T15:29:12.494Z,102147.25
2022-10-12T15:31:40.564Z,102152.59
2022-10-12T15:34:15.253Z,102150.84
2022-10-12T15:36:43.629Z,102153.47
2022-10-12T15:39:11.926Z,102139.38
2022-10-12T15:41:39.969Z,102140.25
2022-10-12T15:44:09.609Z,102132.31
2022-10-12T15:46:37.749Z,102123.50
2022-10-12T15:49:05.800Z,102121.75
2022-10-12T15:51:41.520Z,102124.38
2022-10-12T15:54:10.759Z,102121.72
2022-10-12T15:56:38.826Z,102120.84
2022-10-12T15:59:07.598Z,102127.00
2022-10-12T16:01:37.861Z,102123.53
2022-10-12T16:04:07.366Z,102114.69
2022-10-12T16:06:36.763Z,102108.50
2022-10-12T16:09:05.019Z,102121.75
2022-10-12T16:11:33.480Z,102121.75
2022-10-12T16:14:01.779Z,102116.47
2022-10-12T16:16:32.001Z,102124.41
2022-10-12T16:19:00.077Z,102118.22
2022-10-12T16:21:28.272Z,102126.13
2022-10-12T16:23:57.723Z,102116.44
2022-10-12T16:26:26.959Z,102115.53
2022-10-12T16:28:55.246Z,102109.31
2022-10-12T16:31:23.383Z,102117.25
2022-10-12T16:33:51.544Z,102113.66
2022-10-12T16:36:19.626Z,102111.88
2022-10-12T16:38:47.823Z,102114.50
2022-10-12T16:41:18.631Z,102117.09
2022-10-12T16:43:47.337Z,102123.22
2022-10-12T16:46:15.434Z,102124.09
2022-10-12T16:48:44.456Z,102124.03
2022-10-12T16:51:14.745Z,102129.31
2022-10-12T16:53:43.844Z,102134.56
2022-10-12T16:56:12.100Z,102134.50
2022-10-12T16:58:41.745Z,102134.47
2022-10-12T17:01:11.922Z,102147.59
2022-10-12T17:03:40.175Z,102155.50
2022-10-12T17:06:09.209Z,102149.31
2022-10-12T17:08:39.239Z,102147.50
2022-10-12T17:11:08.952Z,102137.75
2022-10-12T17:13:38.392Z,102150.91
2022-10-12T17:16:24.239Z,102150.00
2022-10-12T17:18:56.816Z,102144.66
2022-10-12T17:21:27.274Z,102142.00
2022-10-12T17:23:58.052Z,102149.84
2022-10-12T17:26:26.308Z,102147.19
2022-10-12T17:28:54.900Z,102137.47
2022-10-12T17:31:24.386Z,102132.16
2022-10-12T17:33:52.479Z,102122.44
2022-10-12T17:36:24.405Z,102125.00
2022-10-12T17:38:56.346Z,102132.00
2022-10-12T17:41:24.890Z,102119.66
2022-10-12T17:43:53.274Z,102110.84
2022-10-12T17:46:22.684Z,102109.91
2022-10-12T17:48:52.485Z,102116.00
2022-10-12T17:51:20.782Z,102107.19
2022-10-12T17:53:49.295Z,102102.72
2022-10-12T17:56:17.651Z,102100.88
2022-10-12T17:58:45.921Z,102103.47
2022-10-12T18:01:16.406Z,102116.56
2022-10-12T18:03:47.011Z,102121.81
2022-10-12T18:06:20.220Z,102116.53
2022-10-12T18:08:48.925Z,102107.69
2022-10-12T18:11:18.549Z,102106.72
2022-10-12T18:13:48.923Z,102111.88
2022-10-12T18:16:19.635Z,102104.78
2022-10-12T18:18:50.600Z,102099.44
2022-10-12T18:21:22.746Z,102101.09
2022-10-12T18:23:51.501Z,102099.25
2022-10-12T18:26:22.157Z,102095.72
2022-10-12T18:28:51.890Z,102096.56
2022-10-12T18:31:23.216Z,102095.66
2022-10-12T18:33:51.503Z,102093.91
2022-10-12T18:36:21.959Z,102101.75
2022-10-12T18:38:50.206Z,102095.59
2022-10-12T18:41:22.908Z,102084.16
2022-10-12T18:43:55.111Z,102077.13
2022-10-12T18:46:23.324Z,102078.91
2022-10-12T18:48:51.515Z,102072.78
2022-10-12T18:51:25.268Z,102066.66
2022-10-12T18:53:53.400Z,102083.34
2022-10-12T18:56:22.693Z,102080.72
2022-10-12T18:58:50.997Z,102088.66
2022-10-12T19:01:22.049Z,102086.91
2022-10-12T19:03:50.664Z,102093.94
2022-10-12T19:06:22.493Z,102090.47
2022-10-12T19:08:51.615Z,102089.59
2022-10-12T19:11:22.562Z,102085.19
2022-10-12T19:13:54.674Z,102072.03
2022-10-12T19:16:23.402Z,102065.91
2022-10-12T19:18:57.451Z,102058.91
2022-10-12T19:21:27.195Z,102072.88
2022-10-12T19:23:55.718Z,102068.50
2022-10-12T19:26:27.024Z,102057.09
2022-10-12T19:28:57.252Z,102067.63
2022-10-12T19:31:29.321Z,102072.91
2022-10-12T19:34:00.053Z,102060.59
2022-10-12T19:36:30.221Z,102059.66
2022-10-12T19:38:59.970Z,102053.47
2022-10-12T19:41:30.841Z,102052.56
2022-10-12T19:44:00.159Z,102060.44
2022-10-12T19:46:29.091Z,102053.44
2022-10-12T19:48:59.402Z,102049.00
2022-10-12T19:51:30.803Z,102046.34
2022-10-12T19:54:01.813Z,102049.78
2022-10-12T19:56:30.979Z,102048.91
2022-10-12T19:58:59.659Z,102050.59
2022-10-12T20:01:29.742Z,102044.28
2022-10-12T20:03:57.843Z,102049.44
2022-10-12T20:06:28.778Z,102038.78
2022-10-12T20:09:01.368Z,102045.56
2022-10-12T20:11:30.107Z,102041.81
2022-10-12T20:13:59.247Z,102047.84
2022-10-12T20:16:32.431Z,102041.47
2022-10-12T20:19:02.903Z,102042.16
2022-10-12T20:21:30.979Z,102042.88
2022-10-12T20:24:00.543Z,102033.94
2022-10-12T20:26:29.035Z,102039.94
2022-10-12T20:28:57.183Z,102038.00
2022-10-12T20:31:27.363Z,102044.03
2022-10-12T20:33:55.963Z,102033.38
2022-10-12T20:36:26.721Z,102037.63
2022-10-12T20:38:55.104Z,102038.38
2022-10-12T20:41:25.360Z,102039.94
2022-10-12T20:43:57.166Z,102038.91
2022-10-12T20:46:25.893Z,102044.06
2022-10-12T20:48:58.870Z,102038.69
2022-10-12T20:51:30.282Z,102033.28
2022-10-12T20:54:00.760Z,102027.84
2022-10-12T20:56:31.038Z,102025.16
2022-10-12T20:58:59.634Z,102032.09
2022-10-12T21:01:28.325Z,102021.50
2022-10-12T21:03:56.814Z,102024.88
2022-10-12T21:06:25.138Z,102018.69
2022-10-12T21:08:55.840Z,102013.28
2022-10-12T21:11:26.080Z,102015.75
2022-10-12T21:13:56.236Z,102015.66
2022-10-12T21:16:24.766Z,102008.53
2022-10-12T21:18:55.306Z,102007.59
2022-10-12T21:21:26.922Z,102015.38
2022-10-12T21:23:58.013Z,102014.44
2022-10-12T21:26:30.320Z,102002.97
2022-10-12T21:29:00.821Z,101997.69
2022-10-12T21:31:32.620Z,102002.91
2022-10-12T21:34:02.488Z,102002.00
2022-10-12T21:36:31.861Z,101998.50
2022-10-12T21:39:00.052Z,101995.84
2022-10-12T21:41:30.600Z,101992.34
2022-10-12T21:44:00.264Z,101990.59
2022-10-12T21:46:31.591Z,101986.25
2022-10-12T21:49:01.158Z,101983.63
2022-10-12T21:51:32.026Z,101976.66
2022-10-12T21:54:00.368Z,101986.22
2022-10-12T21:56:31.297Z,101981.00
2022-10-12T21:59:02.705Z,101973.09
2022-10-12T22:01:35.268Z,101978.38
2022-10-12T22:04:06.410Z,101978.44
2022-10-12T22:06:35.373Z,101976.81
2022-10-12T22:09:07.211Z,101981.31
2022-10-12T22:11:37.250Z,101978.81
2022-10-12T22:14:09.756Z,101976.41
2022-10-12T22:16:38.206Z,101973.03
2022-10-12T22:19:10.774Z,101969.69
2022-10-12T22:21:38.874Z,101962.75
2022-10-12T22:24:07.911Z,101970.69
2022-10-12T22:26:36.238Z,101962.84
2022-10-12T22:29:08.595Z,101958.56
2022-10-12T22:31:37.447Z,101956.91
2022-10-12T22:34:06.322Z,101957.88
2022-10-12T22:36:35.224Z,101950.97
2022-10-12T22:39:03.902Z,101953.75
2022-10-12T22:41:31.976Z,101944.19
2022-10-12T22:44:00.058Z,101947.81
2022-10-12T22:46:29.822Z,101946.16
2022-10-12T22:48:57.926Z,101952.34
2022-10-12T22:51:31.514Z,101943.66
2022-10-12T22:54:00.536Z,101957.69
2022-10-12T22:56:29.154Z,101949.81
2022-10-12T22:58:59.102Z,101950.69
2022-10-12T23:01:29.478Z,101938.44
2022-10-12T23:03:57.725Z,101945.44
2022-10-12T23:06:26.209Z,101941.94
2022-10-12T23:08:54.673Z,101952.53
2022-10-12T23:11:25.699Z,101950.81
2022-10-12T23:13:54.545Z,101943.81
2022-10-12T23:16:25.256Z,101949.16
2022-10-12T23:18:59.276Z,101944.81
2022-10-12T23:21:28.858Z,101940.50
2022-10-12T23:23:58.178Z,101937.03
2022-10-12T23:26:27.892Z,101940.56
2022-10-12T23:28:56.669Z,101931.00
2022-10-12T23:31:28.809Z,101931.06
2022-10-12T23:33:59.843Z,101928.44
2022-10-12T23:36:28.497Z,101933.75
2022-10-12T23:38:57.107Z,101929.34
2022-10-12T23:41:25.214Z,101927.53
2022-10-12T23:43:53.340Z,101925.75
2022-10-12T23:46:21.426Z,101927.47
2022-10-12T23:48:49.634Z,101930.09
2022-10-12T23:51:19.129Z,101930.09
2022-10-12T23:53:47.265Z,101930.09
2022-10-12T23:56:15.515Z,101928.38
2022-10-12T23:58:43.768Z,101926.63
